Aviation Digital Data Service (ADDS)

Output produced by METARs form (0424 UTC 25 August 2016)
found at http://www.aviationweather.gov/adds/metars/
 
KILG 250351Z 20004KT 10SM CLR 21/17 A3020 RMK AO2 SLP225 T02110167
KILG 242337Z 2500/2524 17010KT P6SM SKC 
     FM250100 19004KT P6SM FEW250 
     FM251500 20009KT P6SM SCT050